Time;durP1;ratioP1;P1;durP2;ratioP2;P2;SDS_P1;SDS_P2;PMS_P1;PMS_P2;Temp;Humidity;BMP_temperature;BMP_pressure;BME280_temperature;BME280_humidity;BME280_pressure;Samples;Min_cycle;Max_cycle;Signal;HPM_P1;HPM_P2
2022/08/07 00:02:10;;;;;;;5.47;2.33;;;;;;;;;;5052296;28;20211;-73
2022/08/07 00:04:56;;;;;;;5.53;2.10;;;;;;;;;;5043257;28;20200;-73
2022/08/07 00:07:23;;;;;;;5.97;2.50;;;;;;;;;;5033625;28;20200;-73
2022/08/07 00:09:53;;;;;;;4.10;2.20;;;;;;;;;;5035241;28;20647;-73
2022/08/07 00:12:40;;;;;;;3.53;2.17;;;;;;;;;;5043295;28;20193;-73
2022/08/07 00:15:25;;;;;;;3.47;2.00;;;;;;;;;;5042642;28;20539;-73
2022/08/07 00:18:12;;;;;;;4.23;2.10;;;;;;;;;;5047575;28;20191;-73
2022/08/07 00:20:59;;;;;;;2.20;1.53;;;;;;;;;;5034183;28;20180;-73
2022/08/07 00:23:29;;;;;;;4.17;2.13;;;;;;;;;;5049177;28;20209;-73
2022/08/07 00:25:56;;;;;;;3.80;2.30;;;;;;;;;;5041994;28;20738;-73
2022/08/07 00:28:30;;;;;;;3.87;2.23;;;;;;;;;;5039311;28;20226;-73
2022/08/07 00:31:14;;;;;;;3.60;2.20;;;;;;;;;;5043606;28;20183;-73
2022/08/07 00:33:43;;;;;;;3.33;2.20;;;;;;;;;;5046645;28;20537;-73
2022/08/07 00:36:13;;;;;;;3.70;2.20;;;;;;;;;;5045710;28;20554;-73
2022/08/07 00:38:42;;;;;;;3.93;2.20;;;;;;;;;;5048642;28;21070;-73
2022/08/07 00:41:10;;;;;;;3.57;2.27;;;;;;;;;;5040678;28;20191;-73
2022/08/07 00:43:41;;;;;;;6.83;2.50;;;;;;;;;;5063260;28;20312;-73
2022/08/07 00:46:27;;;;;;;5.53;2.33;;;;;;;;;;5045635;28;20189;-73
2022/08/07 00:48:54;;;;;;;5.43;2.63;;;;;;;;;;5041118;28;20279;-73
2022/08/07 00:51:21;;;;;;;5.17;2.53;;;;;;;;;;5048993;28;20277;-72
2022/08/07 00:54:08;;;;;;;5.43;2.70;;;;;;;;;;5049133;28;20185;-73
2022/08/07 00:56:37;;;;;;;4.37;2.87;;;;;;;;;;5049183;28;20648;-74
2022/08/07 00:59:06;;;;;;;6.70;2.87;;;;;;;;;;5036400;28;20516;-74
2022/08/07 01:01:33;;;;;;;6.13;2.67;;;;;;;;;;5037820;28;20192;-74
2022/08/07 01:04:10;;;;;;;5.13;2.50;;;;;;;;;;5031882;28;20218;-74
2022/08/07 01:06:50;;;;;;;4.43;2.67;;;;;;;;;;5048828;28;20251;-73
2022/08/07 01:09:16;;;;;;;3.43;2.50;;;;;;;;;;5039935;28;20195;-73
2022/08/07 01:12:03;;;;;;;5.20;2.50;;;;;;;;;;5046410;28;20677;-74
2022/08/07 01:14:50;;;;;;;6.43;2.60;;;;;;;;;;5050290;28;20273;-73
2022/08/07 01:17:28;;;;;;;5.13;2.73;;;;;;;;;;5040546;28;20195;-74
2022/08/07 01:20:05;;;;;;;4.50;3.03;;;;;;;;;;5048359;28;20195;-74
2022/08/07 01:22:34;;;;;;;5.53;3.10;;;;;;;;;;5028840;28;20223;-74
2022/08/07 01:25:01;;;;;;;6.60;3.53;;;;;;;;;;5038004;28;20183;-74
2022/08/07 01:27:49;;;;;;;5.33;3.20;;;;;;;;;;5037762;28;20617;-73
2022/08/07 01:30:17;;;;;;;5.67;3.27;;;;;;;;;;5015863;28;20196;-73
2022/08/07 01:32:45;;;;;;;7.43;3.30;;;;;;;;;;5036451;28;20199;-73
2022/08/07 01:35:12;;;;;;;6.27;3.27;;;;;;;;;;5027216;28;20615;-73
2022/08/07 01:37:45;;;;;;;5.57;3.30;;;;;;;;;;5054288;28;20203;-73
2022/08/07 01:40:12;;;;;;;5.00;3.70;;;;;;;;;;5039985;28;20186;-73
2022/08/07 01:42:50;;;;;;;5.10;3.10;;;;;;;;;;5013532;28;20653;-73
2022/08/07 01:45:26;;;;;;;4.63;3.00;;;;;;;;;;5042824;28;20666;-73
2022/08/07 01:48:12;;;;;;;5.50;3.17;;;;;;;;;;5039297;28;20223;-73
2022/08/07 01:50:59;;;;;;;6.23;3.83;;;;;;;;;;5020697;28;20191;-74
2022/08/07 01:53:53;;;;;;;4.20;3.10;;;;;;;;;;5032936;28;20199;-73
2022/08/07 01:56:53;;;;;;;5.30;3.00;;;;;;;;;;5033951;28;20237;-75
2022/08/07 01:59:26;;;;;;;5.83;3.37;;;;;;;;;;5046110;28;20198;-74
2022/08/07 02:01:59;;;;;;;7.13;3.07;;;;;;;;;;5035489;28;20222;-74
2022/08/07 02:04:35;;;;;;;4.70;3.17;;;;;;;;;;5028305;28;20255;-74
2022/08/07 02:07:03;;;;;;;6.10;3.20;;;;;;;;;;5039669;28;20195;-74
2022/08/07 02:09:31;;;;;;;4.30;2.80;;;;;;;;;;5044275;28;20274;-73
2022/08/07 02:12:19;;;;;;;4.47;3.10;;;;;;;;;;5037359;28;20199;-73
2022/08/07 02:14:56;;;;;;;5.17;2.97;;;;;;;;;;5029263;28;20678;-73
2022/08/07 02:17:35;;;;;;;5.47;2.93;;;;;;;;;;5024326;28;20195;-73
2022/08/07 02:20:20;;;;;;;5.07;2.67;;;;;;;;;;5035828;28;20179;-73
2022/08/07 02:22:54;;;;;;;5.03;3.20;;;;;;;;;;5029517;28;20295;-74
2022/08/07 02:25:21;;;;;;;4.10;2.90;;;;;;;;;;5031092;28;20681;-73
2022/08/07 02:28:09;;;;;;;4.47;2.80;;;;;;;;;;5047166;28;20245;-74
2022/08/07 02:30:37;;;;;;;5.10;3.27;;;;;;;;;;5033223;28;20199;-73
2022/08/07 02:33:04;;;;;;;5.03;3.47;;;;;;;;;;5058032;28;20186;-73
2022/08/07 02:35:37;;;;;;;8.37;3.73;;;;;;;;;;5043984;28;20669;-73
2022/08/07 02:38:28;;;;;;;7.17;4.17;;;;;;;;;;5035326;28;20275;-73
2022/08/07 02:41:00;;;;;;;11.07;5.23;;;;;;;;;;5027853;28;20738;-74
2022/08/07 02:43:32;;;;;;;8.53;4.63;;;;;;;;;;5038867;28;20276;-74
2022/08/07 02:45:59;;;;;;;8.97;4.63;;;;;;;;;;5047058;28;20282;-74
2022/08/07 02:48:30;;;;;;;13.53;6.63;;;;;;;;;;5043134;28;20661;-74
2022/08/07 02:51:05;;;;;;;11.43;5.80;;;;;;;;;;5030213;28;20936;-74
2022/08/07 02:53:32;;;;;;;11.37;5.23;;;;;;;;;;5046409;28;20659;-74
2022/08/07 02:56:08;;;;;;;12.57;5.27;;;;;;;;;;5028150;28;20197;-75
2022/08/07 02:58:48;;;;;;;10.07;4.90;;;;;;;;;;5043751;28;20275;-73
2022/08/07 03:01:33;;;;;;;13.97;5.33;;;;;;;;;;5047604;28;20190;-74
2022/08/07 03:04:08;;;;;;;11.47;6.03;;;;;;;;;;5039801;28;20221;-74
2022/08/07 03:06:43;;;;;;;10.80;5.00;;;;;;;;;;5024554;28;20648;-74
2022/08/07 03:09:12;;;;;;;12.87;5.23;;;;;;;;;;5026882;28;20274;-74
2022/08/07 03:11:57;;;;;;;6.73;4.00;;;;;;;;;;5029451;28;20183;-74
2022/08/07 03:14:31;;;;;;;7.90;4.30;;;;;;;;;;5028855;28;20335;-74
2022/08/07 03:16:59;;;;;;;8.47;4.40;;;;;;;;;;5026360;28;20195;-74
2022/08/07 03:19:30;;;;;;;6.87;4.10;;;;;;;;;;5039724;28;20206;-74
2022/08/07 03:22:05;;;;;;;9.50;5.00;;;;;;;;;;5046605;28;20904;-75
2022/08/07 03:24:44;;;;;;;9.47;4.80;;;;;;;;;;5045320;28;20229;-74
2022/08/07 03:27:12;;;;;;;6.47;3.93;;;;;;;;;;5047912;28;20189;-74
2022/08/07 03:29:59;;;;;;;6.63;3.60;;;;;;;;;;5026907;28;20311;-74
2022/08/07 03:32:47;;;;;;;8.73;4.03;;;;;;;;;;5040053;28;20551;-74
2022/08/07 03:35:26;;;;;;;7.57;3.53;;;;;;;;;;5031161;28;20275;-75
2022/08/07 03:38:14;;;;;;;5.77;3.80;;;;;;;;;;5033262;28;20180;-74
2022/08/07 03:40:42;;;;;;;6.77;3.63;;;;;;;;;;5030004;28;21710;-75
2022/08/07 03:43:13;;;;;;;7.33;3.93;;;;;;;;;;5044497;28;20653;-74
2022/08/07 03:45:49;;;;;;;6.83;3.60;;;;;;;;;;5027266;28;20642;-74
2022/08/07 03:48:33;;;;;;;4.40;3.40;;;;;;;;;;5032444;28;20190;-74
2022/08/07 03:51:21;;;;;;;5.23;3.60;;;;;;;;;;5044167;28;20207;-74
2022/08/07 03:54:05;;;;;;;8.40;3.53;;;;;;;;;;5034919;28;20174;-75
2022/08/07 03:56:53;;;;;;;6.70;3.50;;;;;;;;;;5037895;28;20669;-74
2022/08/07 03:59:31;;;;;;;6.40;3.90;;;;;;;;;;5046316;28;20198;-74
2022/08/07 04:01:58;;;;;;;6.00;3.43;;;;;;;;;;5023578;28;20197;-74
2022/08/07 04:04:42;;;;;;;6.87;3.40;;;;;;;;;;5040376;28;20203;-74
2022/08/07 04:07:11;;;;;;;7.50;3.70;;;;;;;;;;5034540;28;20277;-74
2022/08/07 04:09:46;;;;;;;7.43;3.67;;;;;;;;;;5032204;28;20209;-78
2022/08/07 04:12:21;;;;;;;5.63;3.33;;;;;;;;;;5033594;28;20201;-78
2022/08/07 04:14:55;;;;;;;5.53;3.60;;;;;;;;;;5039348;28;20301;-77
2022/08/07 04:17:28;;;;;;;4.43;3.27;;;;;;;;;;5038979;28;20273;-78
2022/08/07 04:20:15;;;;;;;6.50;3.43;;;;;;;;;;5038604;28;20200;-76
2022/08/07 04:22:42;;;;;;;6.60;3.30;;;;;;;;;;5040633;28;20199;-78
2022/08/07 04:25:29;;;;;;;5.43;3.23;;;;;;;;;;5027326;28;20817;-80
2022/08/07 04:28:05;;;;;;;7.37;3.33;;;;;;;;;;5027178;28;20217;-79
2022/08/07 04:30:34;;;;;;;5.00;2.97;;;;;;;;;;5040324;28;20205;-78
2022/08/07 04:33:25;;;;;;;6.40;3.03;;;;;;;;;;5041239;28;20530;-78
2022/08/07 04:36:10;;;;;;;4.77;3.00;;;;;;;;;;5041115;28;20786;-77
2022/08/07 04:38:37;;;;;;;7.73;3.07;;;;;;;;;;5025241;28;20282;-78
2022/08/07 04:41:07;;;;;;;5.60;3.53;;;;;;;;;;5040205;28;20202;-73
2022/08/07 04:43:45;;;;;;;6.63;3.83;;;;;;;;;;5035422;28;20221;-73
2022/08/07 04:46:41;;;;;;;4.90;2.93;;;;;;;;;;5041841;28;20187;-72
2022/08/07 04:49:41;;;;;;;5.00;3.10;;;;;;;;;;5040426;28;20686;-75
2022/08/07 04:52:23;;;;;;;4.53;3.30;;;;;;;;;;5016094;28;20689;-75
2022/08/07 04:55:00;;;;;;;5.30;2.90;;;;;;;;;;5039328;28;20210;-73
2022/08/07 04:57:46;;;;;;;5.20;2.83;;;;;;;;;;5026933;28;20206;-70
2022/08/07 05:00:37;;;;;;;4.53;2.73;;;;;;;;;;5039479;28;20190;-70
2022/08/07 05:03:13;;;;;;;5.87;3.20;;;;;;;;;;5038894;28;20197;-70
2022/08/07 05:06:06;;;;;;;8.87;3.23;;;;;;;;;;5040913;28;20191;-72
2022/08/07 05:08:55;;;;;;;6.63;3.20;;;;;;;;;;5055860;28;20297;-72
2022/08/07 05:11:33;;;;;;;4.87;2.67;;;;;;;;;;5025353;28;20256;-74
2022/08/07 05:14:24;;;;;;;3.97;2.73;;;;;;;;;;5040282;28;20246;-71
2022/08/07 05:17:12;;;;;;;6.50;3.07;;;;;;;;;;5042670;28;20217;-74
2022/08/07 05:20:00;;;;;;;5.57;2.83;;;;;;;;;;5040778;28;20195;-73
2022/08/07 05:22:35;;;;;;;4.90;2.57;;;;;;;;;;5025818;28;20202;-74
2022/08/07 05:25:03;;;;;;;4.37;2.23;;;;;;;;;;5035172;28;20214;-73
2022/08/07 05:27:37;;;;;;;4.90;1.83;;;;;;;;;;5041658;28;20606;-74
2022/08/07 05:30:26;;;;;;;3.53;2.20;;;;;;;;;;5032563;28;20221;-74
2022/08/07 05:33:01;;;;;;;3.47;2.57;;;;;;;;;;5037254;28;20206;-74
2022/08/07 05:35:33;;;;;;;4.40;2.53;;;;;;;;;;5038611;28;20276;-72
2022/08/07 05:38:11;;;;;;;3.60;2.00;;;;;;;;;;5033869;28;20703;-75
2022/08/07 05:40:57;;;;;;;12.13;6.40;;;;;;;;;;5017753;28;20196;-73
2022/08/07 05:43:27;;;;;;;6.40;2.97;;;;;;;;;;5024085;28;20219;-76
2022/08/07 05:46:18;;;;;;;7.23;4.50;;;;;;;;;;5041181;28;20213;-73
2022/08/07 05:48:52;;;;;;;5.57;1.87;;;;;;;;;;5039544;28;20592;-76
2022/08/07 05:51:28;;;;;;;4.30;2.07;;;;;;;;;;5027220;28;20213;-74
2022/08/07 05:53:59;;;;;;;5.97;2.90;;;;;;;;;;5024488;28;20195;-76
2022/08/07 05:56:45;;;;;;;5.40;2.43;;;;;;;;;;5019435;28;20194;-74
2022/08/07 05:59:17;;;;;;;6.77;2.87;;;;;;;;;;5039770;28;20203;-70
2022/08/07 06:01:48;;;;;;;5.20;2.67;;;;;;;;;;5035083;28;20532;-72
2022/08/07 06:04:17;;;;;;;4.90;2.50;;;;;;;;;;5038417;28;20246;-70
2022/08/07 06:06:44;;;;;;;3.67;1.83;;;;;;;;;;5007738;28;20725;-71
2022/08/07 06:09:22;;;;;;;6.30;3.33;;;;;;;;;;5055845;28;20202;-72
2022/08/07 06:12:09;;;;;;;4.43;1.80;;;;;;;;;;5028030;28;20183;-73
2022/08/07 06:14:41;;;;;;;7.83;3.10;;;;;;;;;;5009461;28;20199;-73
2022/08/07 06:17:16;;;;;;;3.23;1.43;;;;;;;;;;5041882;28;20205;-73
2022/08/07 06:19:43;;;;;;;3.63;3.10;;;;;;;;;;5023788;28;20207;-76
2022/08/07 06:22:28;;;;;;;6.37;2.50;;;;;;;;;;5010953;28;20183;-74
2022/08/07 06:25:03;;;;;;;2.60;0.83;;;;;;;;;;5038310;28;20224;-76
2022/08/07 06:27:31;;;;;;;7.20;2.37;;;;;;;;;;5026693;28;20918;-70
2022/08/07 06:30:19;;;;;;;5.73;2.20;;;;;;;;;;5024943;28;20202;-73
2022/08/07 06:33:05;;;;;;;4.80;1.80;;;;;;;;;;5026128;28;20194;-70
2022/08/07 06:35:41;;;;;;;5.07;2.40;;;;;;;;;;5033220;28;20194;-74
2022/08/07 06:38:28;;;;;;;3.10;1.30;;;;;;;;;;5009983;28;20191;-73
2022/08/07 06:40:56;;;;;;;5.17;2.17;;;;;;;;;;5039541;28;20804;-72
2022/08/07 06:43:24;;;;;;;3.43;0.80;;;;;;;;;;5024926;28;20657;-72
2022/08/07 06:46:07;;;;;;;4.20;1.57;;;;;;;;;;5025484;28;20210;-74
2022/08/07 06:48:53;;;;;;;3.77;1.20;;;;;;;;;;5030842;28;20239;-73
2022/08/07 06:51:25;;;;;;;5.13;2.50;;;;;;;;;;5025564;28;20201;-74
2022/08/07 06:54:03;;;;;;;4.70;1.97;;;;;;;;;;5025933;28;20998;-74
2022/08/07 06:56:49;;;;;;;3.97;1.90;;;;;;;;;;5025452;28;20190;-74
2022/08/07 06:59:22;;;;;;;2.33;1.07;;;;;;;;;;5024048;28;20285;-75
2022/08/07 07:02:27;;;;;;;3.43;1.57;;;;;;;;;;5041700;28;20195;-72
2022/08/07 07:05:14;;;;;;;4.97;1.70;;;;;;;;;;5038017;28;20292;-67
2022/08/07 07:08:01;;;;;;;2.77;1.10;;;;;;;;;;5031322;28;20192;-69
2022/08/07 07:10:33;;;;;;;3.70;1.07;;;;;;;;;;5024761;28;20199;-73
2022/08/07 07:13:05;;;;;;;2.10;0.83;;;;;;;;;;5045374;28;20248;-72
2022/08/07 07:15:59;;;;;;;2.10;0.80;;;;;;;;;;5039786;28;20394;-74
2022/08/07 07:18:33;;;;;;;3.27;1.10;;;;;;;;;;5033056;28;20234;-73
2022/08/07 07:21:13;;;;;;;2.47;0.90;;;;;;;;;;5046942;28;20273;-72
2022/08/07 07:23:45;;;;;;;3.93;1.10;;;;;;;;;;5045808;28;20209;-72
2022/08/07 07:26:32;;;;;;;2.90;1.17;;;;;;;;;;5041508;28;20296;-72
2022/08/07 07:29:04;;;;;;;5.90;1.43;;;;;;;;;;5046303;28;20222;-72
2022/08/07 07:31:51;;;;;;;2.70;0.67;;;;;;;;;;5040507;28;20202;-72
2022/08/07 07:34:21;;;;;;;3.00;1.03;;;;;;;;;;5026828;28;20289;-72
2022/08/07 07:37:08;;;;;;;2.17;0.50;;;;;;;;;;5044315;28;20182;-74
2022/08/07 07:39:56;;;;;;;3.90;1.00;;;;;;;;;;5045299;28;20263;-74
2022/08/07 07:42:25;;;;;;;2.53;1.20;;;;;;;;;;5045639;28;20196;-74
2022/08/07 07:45:00;;;;;;;2.17;0.80;;;;;;;;;;5027843;28;20216;-81
2022/08/07 07:47:26;;;;;;;3.37;0.80;;;;;;;;;;5035693;28;20546;-77
2022/08/07 07:49:54;;;;;;;2.50;0.60;;;;;;;;;;5036346;28;20929;-78
2022/08/07 07:52:42;;;;;;;2.73;0.80;;;;;;;;;;5039945;28;20197;-71
2022/08/07 07:55:13;;;;;;;2.83;1.30;;;;;;;;;;5038934;28;20651;-81
2022/08/07 07:57:44;;;;;;;2.47;1.00;;;;;;;;;;5039581;28;20221;-78
2022/08/07 08:00:29;;;;;;;3.13;0.90;;;;;;;;;;5027662;28;20178;-72
2022/08/07 08:03:04;;;;;;;3.53;1.10;;;;;;;;;;5052312;28;20179;-73
2022/08/07 08:05:36;;;;;;;2.20;1.00;;;;;;;;;;5037907;28;20214;-75
2022/08/07 08:08:21;;;;;;;1.73;0.67;;;;;;;;;;5018931;28;20890;-69
2022/08/07 08:11:02;;;;;;;2.27;0.73;;;;;;;;;;5040116;28;20739;-68
2022/08/07 08:13:30;;;;;;;2.67;0.80;;;;;;;;;;5033933;28;20252;-70
2022/08/07 08:16:18;;;;;;;2.20;0.73;;;;;;;;;;5034550;28;20206;-73
2022/08/07 08:18:53;;;;;;;2.13;0.97;;;;;;;;;;5034345;28;20195;-75
2022/08/07 08:27:33;;;;;;;2.40;0.77;;;;;;;;;;5050650;28;20198;-76
2022/08/07 08:30:09;;;;;;;3.07;0.83;;;;;;;;;;5049190;28;20241;-74
2022/08/07 08:32:42;;;;;;;5.93;3.13;;;;;;;;;;5046851;28;20890;-75
2022/08/07 08:35:16;;;;;;;4.63;0.90;;;;;;;;;;5049216;28;20967;-75
2022/08/07 08:37:44;;;;;;;5.10;1.50;;;;;;;;;;5032591;28;20670;-75
2022/08/07 08:40:35;;;;;;;2.53;0.63;;;;;;;;;;5045608;28;20456;-75
2022/08/07 08:43:03;;;;;;;2.93;1.63;;;;;;;;;;5044220;28;20227;-75
2022/08/07 08:45:38;;;;;;;6.03;3.23;;;;;;;;;;5049429;28;20306;-75
2022/08/07 08:48:34;;;;;;;5.90;3.10;;;;;;;;;;5041954;28;20213;-74
2022/08/07 08:51:07;;;;;;;5.67;2.67;;;;;;;;;;5049051;28;20237;-75
2022/08/07 08:53:44;;;;;;;2.17;0.90;;;;;;;;;;5028681;28;20241;-75
2022/08/07 08:56:14;;;;;;;8.60;4.47;;;;;;;;;;5042215;28;20191;-71
2022/08/07 08:58:51;;;;;;;6.67;0.87;;;;;;;;;;5031491;28;20571;-74
2022/08/07 09:01:33;;;;;;;3.33;1.73;;;;;;;;;;5031285;28;20229;-68
2022/08/07 09:04:41;;;;;;;3.33;1.57;;;;;;;;;;5045314;28;20207;-70
2022/08/07 09:07:30;;;;;;;3.57;1.40;;;;;;;;;;5044253;28;20213;-75
2022/08/07 09:10:32;;;;;;;1.63;0.83;;;;;;;;;;5036345;28;20218;-75
2022/08/07 09:12:59;;;;;;;4.10;1.23;;;;;;;;;;5047278;28;20700;-75
2022/08/07 09:15:41;;;;;;;5.27;2.73;;;;;;;;;;5045438;28;20670;-84
2022/08/07 09:18:47;;;;;;;3.53;1.10;;;;;;;;;;5027967;28;20555;-78
2022/08/07 09:21:33;;;;;;;2.77;1.60;;;;;;;;;;5012825;28;20601;-76
2022/08/07 09:24:27;;;;;;;3.87;1.40;;;;;;;;;;5041534;28;20765;-80
2022/08/07 09:27:23;;;;;;;2.50;1.33;;;;;;;;;;5041615;28;20233;-79
2022/08/07 09:30:06;;;;;;;4.93;2.53;;;;;;;;;;5033679;28;20219;-80
2022/08/07 09:32:50;;;;;;;3.67;0.80;;;;;;;;;;5040384;28;20599;-81
2022/08/07 09:35:39;;;;;;;1.20;0.90;;;;;;;;;;5041761;28;20736;-80
2022/08/07 09:38:46;;;;;;;3.23;1.00;;;;;;;;;;5039721;28;20563;-78
2022/08/07 09:41:42;;;;;;;1.67;0.70;;;;;;;;;;5037926;28;20578;-76
2022/08/07 09:44:40;;;;;;;3.63;1.93;;;;;;;;;;5038552;28;20242;-81
2022/08/07 09:47:30;;;;;;;3.43;1.07;;;;;;;;;;5044970;28;20943;-85
2022/08/07 09:50:25;;;;;;;2.30;1.87;;;;;;;;;;5041074;28;20896;-81
2022/08/07 09:52:56;;;;;;;3.40;2.07;;;;;;;;;;5041817;28;20194;-88
2022/08/07 09:55:29;;;;;;;3.67;1.30;;;;;;;;;;5037580;28;20191;-87
2022/08/07 09:58:40;;;;;;;3.20;1.03;;;;;;;;;;5036726;28;20658;-82
2022/08/07 10:01:20;;;;;;;4.50;1.90;;;;;;;;;;5041125;28;20206;-80
2022/08/07 10:04:11;;;;;;;6.87;2.67;;;;;;;;;;5038878;28;20198;-80
2022/08/07 10:06:50;;;;;;;3.30;1.30;;;;;;;;;;5038488;28;20201;-87
2022/08/07 10:09:25;;;;;;;3.37;1.43;;;;;;;;;;5027302;28;20285;-82
2022/08/07 10:12:33;;;;;;;2.67;1.17;;;;;;;;;;5048085;28;20260;-81
2022/08/07 10:15:24;;;;;;;3.17;0.87;;;;;;;;;;5046816;28;20198;-80
2022/08/07 10:18:00;;;;;;;4.37;2.60;;;;;;;;;;5044448;28;20198;-80
2022/08/07 10:20:37;;;;;;;2.87;0.90;;;;;;;;;;5036543;28;20624;-80
2022/08/07 10:23:25;;;;;;;3.23;1.00;;;;;;;;;;5045657;28;20944;-81
2022/08/07 10:26:19;;;;;;;3.43;2.13;;;;;;;;;;5044050;28;20246;-79
2022/08/07 10:29:23;;;;;;;4.23;2.17;;;;;;;;;;5042763;28;20277;-82
2022/08/07 10:32:05;;;;;;;2.23;1.10;;;;;;;;;;5048670;28;20233;-81
2022/08/07 10:35:27;;;;;;;4.07;1.50;;;;;;;;;;5046340;28;20286;-83
2022/08/07 10:38:26;;;;;;;1.83;1.00;;;;;;;;;;5032868;28;20208;-80
2022/08/07 10:41:32;;;;;;;2.97;1.40;;;;;;;;;;5043143;28;20186;-80
2022/08/07 10:44:33;;;;;;;2.47;1.00;;;;;;;;;;5043257;28;20209;-80
2022/08/07 10:47:20;;;;;;;2.53;0.73;;;;;;;;;;5042173;28;20226;-80
2022/08/07 10:50:18;;;;;;;3.93;1.17;;;;;;;;;;5042699;28;20264;-79
2022/08/07 10:52:51;;;;;;;6.67;3.23;;;;;;;;;;5045877;28;20201;-80
2022/08/07 10:55:37;;;;;;;2.33;1.40;;;;;;;;;;5044804;28;20198;-79
2022/08/07 10:58:33;;;;;;;4.03;0.90;;;;;;;;;;5045089;28;20206;-80
2022/08/07 11:01:19;;;;;;;3.10;1.53;;;;;;;;;;5047295;28;20621;-79
2022/08/07 11:04:13;;;;;;;5.60;2.50;;;;;;;;;;5043124;28;20175;-78
2022/08/07 11:07:07;;;;;;;2.40;1.00;;;;;;;;;;5043099;28;20198;-80
2022/08/07 11:09:54;;;;;;;3.10;0.93;;;;;;;;;;5037721;28;20227;-76
2022/08/07 11:12:46;;;;;;;1.67;0.80;;;;;;;;;;5015965;28;20607;-79
2022/08/07 11:15:27;;;;;;;3.30;1.43;;;;;;;;;;5022130;28;20203;-79
2022/08/07 11:17:59;;;;;;;2.67;1.23;;;;;;;;;;5041045;28;20602;-78
2022/08/07 11:20:48;;;;;;;3.27;1.43;;;;;;;;;;5032500;28;20764;-77
2022/08/07 11:23:21;;;;;;;3.70;1.63;;;;;;;;;;5040959;28;20202;-80
2022/08/07 11:26:09;;;;;;;8.53;2.70;;;;;;;;;;5039444;28;20210;-77
2022/08/07 11:28:44;;;;;;;3.00;1.53;;;;;;;;;;5039510;28;20237;-78
2022/08/07 11:31:24;;;;;;;2.53;1.40;;;;;;;;;;5050395;28;20195;-79
2022/08/07 11:34:02;;;;;;;2.93;0.97;;;;;;;;;;5038647;28;20195;-79
2022/08/07 11:36:49;;;;;;;4.13;1.30;;;;;;;;;;5025393;28;20192;-80
2022/08/07 11:39:16;;;;;;;3.23;0.90;;;;;;;;;;5042009;28;20289;-79
2022/08/07 11:42:09;;;;;;;3.10;1.10;;;;;;;;;;5036183;28;20185;-80
2022/08/07 11:45:04;;;;;;;2.47;0.80;;;;;;;;;;5042232;28;20190;-78
2022/08/07 11:47:52;;;;;;;3.03;1.67;;;;;;;;;;5033064;28;20661;-80
2022/08/07 11:50:33;;;;;;;3.03;1.47;;;;;;;;;;5037725;28;20282;-80
2022/08/07 11:53:19;;;;;;;7.63;4.13;;;;;;;;;;5042045;28;20202;-80
2022/08/07 11:55:48;;;;;;;2.63;1.20;;;;;;;;;;5037526;28;20191;-80
2022/08/07 11:58:38;;;;;;;5.43;1.60;;;;;;;;;;5053087;28;20201;-78
2022/08/07 12:01:23;;;;;;;3.90;1.97;;;;;;;;;;5048720;28;20601;-75
2022/08/07 12:04:09;;;;;;;7.87;5.73;;;;;;;;;;5044877;28;20195;-72
2022/08/07 12:06:40;;;;;;;1.33;0.60;;;;;;;;;;5029662;28;20218;-69
2022/08/07 12:09:26;;;;;;;1.93;0.70;;;;;;;;;;5040397;28;20215;-66
2022/08/07 12:11:57;;;;;;;1.53;0.70;;;;;;;;;;5033482;28;20192;-66
2022/08/07 12:14:55;;;;;;;2.67;1.03;;;;;;;;;;5045736;28;20187;-66
2022/08/07 12:17:41;;;;;;;2.70;0.73;;;;;;;;;;5048588;28;20210;-66
2022/08/07 12:20:35;;;;;;;2.87;0.90;;;;;;;;;;5041788;28;20206;-65
2022/08/07 12:23:22;;;;;;;1.57;0.77;;;;;;;;;;5045545;28;20527;-65
2022/08/07 12:26:16;;;;;;;2.10;0.70;;;;;;;;;;5046620;28;20230;-65
2022/08/07 12:28:49;;;;;;;2.23;0.93;;;;;;;;;;5047308;28;20226;-65
2022/08/07 12:31:43;;;;;;;2.80;0.70;;;;;;;;;;5046285;28;20177;-65
2022/08/07 12:34:30;;;;;;;2.37;0.67;;;;;;;;;;5048399;28;20578;-65
2022/08/07 12:36:57;;;;;;;2.27;0.67;;;;;;;;;;5045860;28;20207;-65
2022/08/07 12:39:24;;;;;;;2.97;0.80;;;;;;;;;;5046762;28;20226;-65
2022/08/07 12:42:11;;;;;;;2.47;0.77;;;;;;;;;;5050714;28;20194;-65
2022/08/07 12:44:42;;;;;;;2.40;0.90;;;;;;;;;;5051060;28;20191;-65
2022/08/07 12:47:29;;;;;;;1.80;0.70;;;;;;;;;;5050491;28;20192;-65
2022/08/07 12:50:00;;;;;;;1.40;0.50;;;;;;;;;;5051683;28;20197;-65
2022/08/07 12:52:48;;;;;;;2.37;1.27;;;;;;;;;;5050546;28;20223;-65
2022/08/07 12:55:37;;;;;;;2.40;1.33;;;;;;;;;;5051472;28;20249;-65
2022/08/07 12:58:27;;;;;;;4.03;1.07;;;;;;;;;;5050407;28;20192;-65
2022/08/07 13:01:07;;;;;;;2.43;0.90;;;;;;;;;;5050699;28;20210;-65
2022/08/07 13:03:35;;;;;;;3.10;1.20;;;;;;;;;;5051106;28;20208;-65
2022/08/07 13:06:29;;;;;;;3.20;1.10;;;;;;;;;;5051298;28;20264;-65
2022/08/07 13:08:59;;;;;;;5.73;1.20;;;;;;;;;;5050241;28;20667;-65
2022/08/07 13:11:44;;;;;;;1.63;0.77;;;;;;;;;;5035941;28;20578;-65
2022/08/07 13:14:34;;;;;;;2.20;0.87;;;;;;;;;;5051307;28;20194;-65
2022/08/07 13:17:09;;;;;;;2.70;1.00;;;;;;;;;;5051184;28;20187;-65
2022/08/07 13:19:53;;;;;;;2.73;1.13;;;;;;;;;;5051097;28;20198;-65
2022/08/07 13:22:26;;;;;;;2.43;1.00;;;;;;;;;;5049782;28;20195;-65
2022/08/07 13:25:05;;;;;;;4.37;1.63;;;;;;;;;;5050691;28;20178;-65
2022/08/07 13:27:38;;;;;;;3.30;0.93;;;;;;;;;;5044563;28;20256;-65
2022/08/07 13:30:25;;;;;;;4.30;0.93;;;;;;;;;;5050985;28;20917;-65
2022/08/07 13:33:35;;;;;;;7.43;4.93;;;;;;;;;;5050447;28;20260;-65
2022/08/07 13:36:24;;;;;;;2.63;0.73;;;;;;;;;;5050688;28;20225;-65
2022/08/07 13:38:57;;;;;;;2.80;0.77;;;;;;;;;;5051279;28;20638;-64
2022/08/07 13:41:29;;;;;;;2.30;0.73;;;;;;;;;;5049649;28;20286;-65
2022/08/07 13:43:57;;;;;;;3.23;1.13;;;;;;;;;;5049576;28;20280;-66
2022/08/07 13:46:27;;;;;;;2.83;0.80;;;;;;;;;;5049433;28;20228;-65
2022/08/07 13:49:00;;;;;;;3.07;1.07;;;;;;;;;;5050475;28;20550;-65
2022/08/07 13:51:27;;;;;;;2.83;0.80;;;;;;;;;;5049502;28;20191;-65
2022/08/07 13:54:14;;;;;;;2.03;0.63;;;;;;;;;;5049455;28;20187;-64
2022/08/07 13:56:48;;;;;;;3.87;0.90;;;;;;;;;;5049649;28;20191;-66
2022/08/07 13:59:24;;;;;;;4.20;1.97;;;;;;;;;;5048868;28;20600;-65
2022/08/07 14:02:03;;;;;;;2.23;0.70;;;;;;;;;;5049321;28;20220;-65
2022/08/07 14:04:31;;;;;;;1.77;0.70;;;;;;;;;;5050516;28;20222;-65
2022/08/07 14:07:22;;;;;;;2.23;0.80;;;;;;;;;;5050054;28;20217;-65
2022/08/07 14:09:52;;;;;;;1.53;0.80;;;;;;;;;;5043162;28;20206;-65
2022/08/07 14:12:44;;;;;;;4.60;0.80;;;;;;;;;;5044694;28;20190;-65
2022/08/07 14:15:28;;;;;;;4.30;1.10;;;;;;;;;;5047803;28;20193;-65
2022/08/07 14:18:02;;;;;;;2.63;0.83;;;;;;;;;;5049915;28;20198;-66
2022/08/07 14:20:49;;;;;;;3.77;1.00;;;;;;;;;;5050561;28;20187;-65
2022/08/07 14:23:22;;;;;;;3.57;1.10;;;;;;;;;;5044388;28;20184;-65
2022/08/07 14:26:14;;;;;;;2.90;1.40;;;;;;;;;;5042537;28;20213;-65
2022/08/07 14:28:58;;;;;;;2.63;0.83;;;;;;;;;;5049530;28;20275;-66
2022/08/07 14:31:34;;;;;;;2.83;0.80;;;;;;;;;;5049846;28;20190;-66
2022/08/07 14:34:21;;;;;;;3.73;0.90;;;;;;;;;;5040266;28;20862;-65
2022/08/07 14:36:54;;;;;;;2.80;0.93;;;;;;;;;;5048607;28;20194;-65
2022/08/07 14:39:23;;;;;;;2.83;0.73;;;;;;;;;;5048345;28;20605;-65
2022/08/07 14:42:10;;;;;;;2.57;0.77;;;;;;;;;;5047968;28;20353;-66
2022/08/07 14:44:48;;;;;;;4.77;1.20;;;;;;;;;;5048683;28;20190;-66
2022/08/07 14:47:17;;;;;;;4.47;1.00;;;;;;;;;;5047685;28;20582;-67
2022/08/07 14:49:44;;;;;;;3.07;1.00;;;;;;;;;;5048094;28;20286;-66
2022/08/07 14:52:25;;;;;;;3.90;1.10;;;;;;;;;;5048847;28;20201;-66
2022/08/07 14:54:54;;;;;;;3.60;1.07;;;;;;;;;;5049267;28;20218;-66
2022/08/07 14:57:24;;;;;;;4.80;1.00;;;;;;;;;;5049222;28;20187;-67
2022/08/07 15:00:11;;;;;;;4.37;1.17;;;;;;;;;;5049170;28;20286;-68
2022/08/07 15:02:58;;;;;;;4.97;1.43;;;;;;;;;;5049336;28;20660;-67
2022/08/07 15:05:43;;;;;;;3.63;1.00;;;;;;;;;;5047554;28;20210;-67
2022/08/07 15:08:49;;;;;;;2.80;1.17;;;;;;;;;;5048325;28;20702;-67
2022/08/07 15:11:22;;;;;;;2.67;1.00;;;;;;;;;;5034957;28;20310;-67
2022/08/07 15:14:10;;;;;;;1.93;0.90;;;;;;;;;;5028250;28;20245;-67
2022/08/07 15:16:43;;;;;;;2.73;1.10;;;;;;;;;;5047391;28;20523;-67
2022/08/07 15:19:22;;;;;;;2.27;1.00;;;;;;;;;;5047872;28;20194;-67
2022/08/07 15:22:08;;;;;;;5.77;1.20;;;;;;;;;;5047007;28;20268;-67
2022/08/07 15:24:53;;;;;;;5.40;1.23;;;;;;;;;;5047598;28;20170;-67
2022/08/07 15:27:40;;;;;;;3.97;1.27;;;;;;;;;;5041384;28;20233;-67
2022/08/07 15:30:27;;;;;;;3.57;1.27;;;;;;;;;;5030510;28;20191;-67
2022/08/07 15:32:57;;;;;;;4.43;1.20;;;;;;;;;;5022022;28;20188;-67
2022/08/07 15:35:31;;;;;;;2.37;1.07;;;;;;;;;;5030860;28;20709;-67
2022/08/07 15:38:19;;;;;;;3.87;2.50;;;;;;;;;;5044836;28;20276;-67
2022/08/07 15:41:12;;;;;;;3.97;1.73;;;;;;;;;;5038467;28;20171;-67
2022/08/07 15:44:00;;;;;;;5.83;1.60;;;;;;;;;;5047826;28;20535;-67
2022/08/07 15:46:27;;;;;;;3.20;1.20;;;;;;;;;;5048673;28;20213;-67
2022/08/07 15:49:13;;;;;;;4.77;1.40;;;;;;;;;;5029386;28;20233;-68
2022/08/07 15:51:57;;;;;;;3.63;1.50;;;;;;;;;;5043988;28;20308;-68
2022/08/07 15:54:36;;;;;;;3.77;1.33;;;;;;;;;;5047513;28;20191;-67
2022/08/07 15:57:07;;;;;;;3.33;1.40;;;;;;;;;;5047502;28;20286;-67
2022/08/07 15:59:54;;;;;;;3.83;1.47;;;;;;;;;;5041699;28;20199;-67
2022/08/07 16:02:28;;;;;;;7.57;1.50;;;;;;;;;;5045243;28;20597;-67
2022/08/07 16:04:57;;;;;;;4.80;1.67;;;;;;;;;;5043704;28;20190;-67
2022/08/07 16:07:31;;;;;;;4.47;1.67;;;;;;;;;;5044721;28;20309;-67